createdAt,value
2022-09-27T00:00:27.261Z,986.98
2022-09-27T00:01:27.303Z,986.99
2022-09-27T00:02:27.267Z,987.02
2022-09-27T00:03:27.200Z,987.01
2022-09-27T00:04:27.182Z,986.99
2022-09-27T00:05:27.162Z,987.00
2022-09-27T00:06:27.142Z,987.01
2022-09-27T00:07:27.121Z,987.02
2022-09-27T00:08:27.124Z,986.99
2022-09-27T00:09:27.083Z,987.03
2022-09-27T00:10:27.067Z,987.02
2022-09-27T00:11:27.047Z,987.04
2022-09-27T00:12:27.028Z,986.99
2022-09-27T00:13:27.008Z,987.02
2022-09-27T00:14:26.986Z,987.06
2022-09-27T00:15:26.965Z,987.01
2022-09-27T00:16:26.988Z,987.05
2022-09-27T00:17:26.932Z,987.05
2022-09-27T00:18:26.926Z,987.09
2022-09-27T00:19:26.895Z,987.08
2022-09-27T00:20:26.873Z,987.05
2022-09-27T00:21:26.857Z,987.10
2022-09-27T00:22:26.832Z,987.05
2022-09-27T00:23:26.816Z,987.08
2022-09-27T00:24:26.817Z,987.07
2022-09-27T00:25:26.779Z,987.09
2022-09-27T00:26:26.762Z,987.08
2022-09-27T00:27:26.737Z,987.11
2022-09-27T00:28:26.718Z,987.10
2022-09-27T00:29:26.697Z,987.12
2022-09-27T00:30:26.676Z,987.10
2022-09-27T00:31:26.703Z,987.12
2022-09-27T00:32:26.645Z,987.11
2022-09-27T00:33:26.626Z,987.08
2022-09-27T00:34:26.600Z,987.12
2022-09-27T00:35:26.583Z,987.16
2022-09-27T00:36:26.567Z,987.11
2022-09-27T00:37:26.546Z,987.14
2022-09-27T00:38:26.524Z,987.12
2022-09-27T00:39:26.512Z,987.13
2022-09-27T00:40:26.570Z,987.11
2022-09-27T00:41:26.472Z,987.12
2022-09-27T00:42:26.454Z,987.13
2022-09-27T00:43:26.429Z,987.21
2022-09-27T00:44:26.411Z,987.15
2022-09-27T00:45:26.396Z,987.19
2022-09-27T00:46:26.412Z,987.17
2022-09-27T00:47:26.350Z,987.19
2022-09-27T00:48:26.334Z,987.17
2022-09-27T00:49:26.315Z,987.16
2022-09-27T00:50:26.293Z,987.17
2022-09-27T00:51:26.276Z,987.22
2022-09-27T00:52:26.256Z,987.16
2022-09-27T00:53:26.237Z,987.20
2022-09-27T00:54:26.214Z,987.20
2022-09-27T00:55:26.202Z,987.24
2022-09-27T00:56:26.207Z,987.23
2022-09-27T00:57:26.160Z,987.19
2022-09-27T00:58:26.140Z,987.23
2022-09-27T00:59:26.122Z,987.26
2022-09-27T01:00:26.106Z,987.28
2022-09-27T01:01:26.135Z,987.27
2022-09-27T01:02:26.122Z,987.24
2022-09-27T01:03:26.042Z,987.23
2022-09-27T01:04:26.022Z,987.24
2022-09-27T01:05:26.008Z,987.23
2022-09-27T01:06:25.983Z,987.24
2022-09-27T01:07:25.975Z,987.25
2022-09-27T01:08:25.947Z,987.26
2022-09-27T01:09:25.924Z,987.23
2022-09-27T01:10:25.905Z,987.25
2022-09-27T01:11:25.889Z,987.32
2022-09-27T01:12:25.886Z,987.27
2022-09-27T01:13:25.851Z,987.26
2022-09-27T01:14:25.830Z,987.30
2022-09-27T01:15:25.883Z,987.27
2022-09-27T01:16:25.791Z,987.30
2022-09-27T01:17:25.774Z,987.25
2022-09-27T01:18:25.750Z,987.28
2022-09-27T01:19:25.731Z,987.31
2022-09-27T01:20:25.708Z,987.33
2022-09-27T01:21:25.693Z,987.33
2022-09-27T01:22:25.676Z,987.37
2022-09-27T01:23:25.654Z,987.35
2022-09-27T01:24:25.633Z,987.34
2022-09-27T01:25:25.625Z,987.41
2022-09-27T01:26:25.597Z,987.40
2022-09-27T01:27:25.577Z,987.39
2022-09-27T01:28:25.575Z,987.42
2022-09-27T01:29:25.538Z,987.42
2022-09-27T01:30:25.518Z,987.45
2022-09-27T01:31:25.648Z,987.41
2022-09-27T01:32:25.480Z,987.43
2022-09-27T01:33:25.463Z,987.42
2022-09-27T01:34:25.439Z,987.40
2022-09-27T01:35:25.419Z,987.44
2022-09-27T01:36:25.402Z,987.45
2022-09-27T01:37:25.383Z,987.45
2022-09-27T01:38:25.368Z,987.42
2022-09-27T01:39:25.342Z,987.42
2022-09-27T01:40:25.370Z,987.45
2022-09-27T01:41:25.301Z,987.44
2022-09-27T01:42:25.283Z,987.50
2022-09-27T01:43:25.267Z,987.49
2022-09-27T01:44:25.265Z,987.47
2022-09-27T01:45:25.223Z,987.50
2022-09-27T01:46:25.282Z,987.44
2022-09-27T01:47:25.191Z,987.46
2022-09-27T01:48:25.170Z,987.47
2022-09-27T01:49:25.151Z,987.48
2022-09-27T01:50:25.124Z,987.47
2022-09-27T01:51:25.108Z,987.48
2022-09-27T01:52:25.090Z,987.48
2022-09-27T01:53:25.073Z,987.49
2022-09-27T01:54:25.047Z,987.48
2022-09-27T01:55:25.031Z,987.48
2022-09-27T01:56:25.011Z,987.44
2022-09-27T01:57:24.996Z,987.46
2022-09-27T01:58:24.971Z,987.52
2022-09-27T01:59:24.952Z,987.50
2022-09-27T02:00:24.953Z,987.49
2022-09-27T02:01:25.008Z,987.51
2022-09-27T02:02:24.950Z,987.47
2022-09-27T02:03:24.873Z,987.50
2022-09-27T02:04:24.849Z,987.49
2022-09-27T02:05:24.835Z,987.51
2022-09-27T02:06:24.819Z,987.53
2022-09-27T02:07:24.797Z,987.52
2022-09-27T02:08:24.772Z,987.52
2022-09-27T02:09:24.758Z,987.54
2022-09-27T02:10:24.732Z,987.53
2022-09-27T02:11:24.717Z,987.54
2022-09-27T02:12:24.695Z,987.53
2022-09-27T02:13:24.676Z,987.50
2022-09-27T02:14:24.657Z,987.56
2022-09-27T02:15:24.636Z,987.49
2022-09-27T02:16:24.711Z,987.51
2022-09-27T02:17:24.595Z,987.54
2022-09-27T02:18:24.581Z,987.53
2022-09-27T02:19:24.569Z,987.51
2022-09-27T02:20:24.541Z,987.53
2022-09-27T02:21:24.520Z,987.56
2022-09-27T02:22:24.499Z,987.59
2022-09-27T02:23:24.485Z,987.62
2022-09-27T02:24:24.463Z,987.61
2022-09-27T02:25:24.442Z,987.57
2022-09-27T02:26:24.430Z,987.58
2022-09-27T02:27:24.400Z,987.58
2022-09-27T02:28:24.383Z,987.51
2022-09-27T02:29:24.357Z,987.52
2022-09-27T02:30:24.340Z,987.57
2022-09-27T02:31:24.386Z,987.55
2022-09-27T02:32:24.325Z,987.56
2022-09-27T02:33:24.282Z,987.53
2022-09-27T02:34:24.262Z,987.53
2022-09-27T02:35:24.240Z,987.53
2022-09-27T02:36:24.221Z,987.54
2022-09-27T02:37:24.209Z,987.55
2022-09-27T02:38:24.187Z,987.53
2022-09-27T02:39:24.169Z,987.58
2022-09-27T02:40:24.188Z,987.52
2022-09-27T02:41:24.125Z,987.54
2022-09-27T02:42:24.100Z,987.57
2022-09-27T02:43:24.089Z,987.57
2022-09-27T02:44:24.066Z,987.57
2022-09-27T02:45:24.046Z,987.54
2022-09-27T02:46:24.171Z,987.59
2022-09-27T02:47:24.007Z,987.56
2022-09-27T02:48:24.008Z,987.59
2022-09-27T02:49:23.964Z,987.61
2022-09-27T02:50:23.945Z,987.61
2022-09-27T02:51:23.929Z,987.62
2022-09-27T02:52:23.905Z,987.61
2022-09-27T02:53:23.887Z,987.61
2022-09-27T02:54:23.867Z,987.62
2022-09-27T02:55:23.850Z,987.55
2022-09-27T02:56:23.829Z,987.61
2022-09-27T02:57:23.808Z,987.60
2022-09-27T02:58:23.794Z,987.62
2022-09-27T02:59:23.768Z,987.62
2022-09-27T03:00:23.751Z,987.62
2022-09-27T03:01:23.817Z,987.59
2022-09-27T03:02:23.775Z,987.63
2022-09-27T03:03:23.690Z,987.61
2022-09-27T03:04:23.694Z,987.58
2022-09-27T03:05:23.654Z,987.64
2022-09-27T03:06:23.633Z,987.59
2022-09-27T03:07:23.616Z,987.60
2022-09-27T03:08:23.591Z,987.63
2022-09-27T03:09:23.578Z,987.61
2022-09-27T03:10:23.550Z,987.61
2022-09-27T03:11:23.530Z,987.62
2022-09-27T03:12:23.514Z,987.63
2022-09-27T03:13:23.499Z,987.63
2022-09-27T03:14:23.470Z,987.62
2022-09-27T03:15:23.450Z,987.63
2022-09-27T03:16:23.478Z,987.67
2022-09-27T03:17:23.412Z,987.65
2022-09-27T03:18:23.392Z,987.66
2022-09-27T03:19:23.375Z,987.68
2022-09-27T03:20:23.374Z,987.67
2022-09-27T03:21:23.342Z,987.65
2022-09-27T03:22:23.314Z,987.68
2022-09-27T03:23:23.296Z,987.69
2022-09-27T03:24:23.271Z,987.70
2022-09-27T03:25:23.269Z,987.74
2022-09-27T03:26:23.232Z,987.72
2022-09-27T03:27:23.217Z,987.75
2022-09-27T03:28:23.192Z,987.76
2022-09-27T03:29:23.177Z,987.75
2022-09-27T03:30:23.154Z,987.76
2022-09-27T03:31:23.213Z,987.75
2022-09-27T03:32:23.113Z,987.76
2022-09-27T03:33:23.096Z,987.76
2022-09-27T03:34:23.077Z,987.77
2022-09-27T03:35:23.058Z,987.79
2022-09-27T03:36:23.059Z,987.73
2022-09-27T03:37:23.016Z,987.79
2022-09-27T03:38:22.996Z,987.79
2022-09-27T03:39:22.975Z,987.80
2022-09-27T03:40:22.977Z,987.77
2022-09-27T03:41:22.934Z,987.75
2022-09-27T03:42:22.915Z,987.82
2022-09-27T03:43:22.891Z,987.80
2022-09-27T03:44:22.877Z,987.79
2022-09-27T03:45:22.854Z,987.80
2022-09-27T03:46:22.881Z,987.83
2022-09-27T03:47:22.816Z,987.83
2022-09-27T03:48:27.246Z,987.81
2022-09-27T03:49:22.779Z,987.81
2022-09-27T03:50:22.751Z,987.82
2022-09-27T03:51:22.733Z,987.82
2022-09-27T03:52:22.737Z,987.83
2022-09-27T03:53:22.694Z,987.80
2022-09-27T03:54:22.674Z,987.80
2022-09-27T03:55:22.654Z,987.78
2022-09-27T03:56:22.639Z,987.81
2022-09-27T03:57:22.615Z,987.81
2022-09-27T03:58:22.593Z,987.82
2022-09-27T03:59:22.579Z,987.78
2022-09-27T04:00:22.561Z,987.83
2022-09-27T04:01:22.613Z,987.88
2022-09-27T04:02:22.602Z,987.86
2022-09-27T04:03:22.511Z,987.91
2022-09-27T04:04:22.475Z,987.92
2022-09-27T04:05:22.470Z,987.86
2022-09-27T04:06:22.438Z,987.91
2022-09-27T04:07:22.419Z,987.90
2022-09-27T04:08:22.417Z,987.92
2022-09-27T04:09:22.378Z,987.90
2022-09-27T04:10:22.361Z,987.88
2022-09-27T04:11:22.340Z,987.87
2022-09-27T04:12:22.314Z,987.90
2022-09-27T04:13:22.296Z,987.90
2022-09-27T04:14:22.276Z,987.93
2022-09-27T04:15:22.257Z,987.92
2022-09-27T04:16:22.296Z,987.92
2022-09-27T04:17:22.218Z,987.89
2022-09-27T04:18:22.199Z,987.92
2022-09-27T04:19:22.178Z,987.92
2022-09-27T04:20:22.158Z,987.91
2022-09-27T04:21:22.140Z,987.92
2022-09-27T04:22:22.118Z,987.93
2022-09-27T04:23:25.380Z,987.92
2022-09-27T04:24:22.097Z,987.95
2022-09-27T04:25:22.057Z,987.97
2022-09-27T04:26:22.035Z,987.98
2022-09-27T04:27:22.019Z,987.99
2022-09-27T04:28:21.997Z,988.00
2022-09-27T04:29:21.980Z,988.01
2022-09-27T04:30:21.952Z,988.02
2022-09-27T04:31:22.065Z,988.08
2022-09-27T04:32:21.921Z,988.04
2022-09-27T04:33:21.896Z,988.08
2022-09-27T04:34:21.875Z,987.99
2022-09-27T04:35:21.855Z,988.06
2022-09-27T04:36:21.838Z,988.04
2022-09-27T04:37:21.812Z,988.04
2022-09-27T04:38:21.797Z,988.08
2022-09-27T04:39:21.778Z,988.08
2022-09-27T04:40:21.805Z,988.07
2022-09-27T04:41:21.740Z,988.04
2022-09-27T04:42:21.718Z,988.04
2022-09-27T04:43:21.702Z,988.11
2022-09-27T04:44:21.674Z,988.05
2022-09-27T04:45:21.659Z,988.02
2022-09-27T04:46:21.662Z,988.08
2022-09-27T04:47:21.617Z,988.06
2022-09-27T04:48:21.594Z,988.09
2022-09-27T04:49:21.573Z,988.11
2022-09-27T04:50:21.551Z,988.16
2022-09-27T04:51:21.535Z,988.13
2022-09-27T04:52:21.511Z,988.13
2022-09-27T04:53:21.492Z,988.16
2022-09-27T04:54:21.469Z,988.17
2022-09-27T04:55:21.448Z,988.19
2022-09-27T04:56:21.449Z,988.18
2022-09-27T04:57:21.411Z,988.22
2022-09-27T04:58:21.390Z,988.22
2022-09-27T04:59:21.370Z,988.30
2022-09-27T05:00:21.348Z,988.31
2022-09-27T05:01:21.366Z,988.35
2022-09-27T05:02:21.329Z,988.35
2022-09-27T05:03:21.289Z,988.35
2022-09-27T05:04:21.271Z,988.37
2022-09-27T05:05:21.251Z,988.33
2022-09-27T05:06:21.237Z,988.39
2022-09-27T05:07:21.203Z,988.35
2022-09-27T05:08:21.182Z,988.37
2022-09-27T05:09:21.165Z,988.38
2022-09-27T05:10:21.149Z,988.41
2022-09-27T05:11:21.124Z,988.38
2022-09-27T05:12:21.127Z,988.38
2022-09-27T05:13:21.082Z,988.41
2022-09-27T05:14:21.108Z,988.44
2022-09-27T05:15:21.066Z,988.45
2022-09-27T05:16:21.059Z,988.45
2022-09-27T05:17:21.000Z,988.42
2022-09-27T05:18:20.983Z,988.48
2022-09-27T05:19:20.961Z,988.49
2022-09-27T05:20:20.942Z,988.49
2022-09-27T05:21:20.925Z,988.49
2022-09-27T05:22:20.950Z,988.49
2022-09-27T05:23:20.884Z,988.49
2022-09-27T05:24:20.861Z,988.51
2022-09-27T05:25:20.839Z,988.52
2022-09-27T05:26:20.819Z,988.55
2022-09-27T05:27:20.800Z,988.56
2022-09-27T05:28:20.803Z,988.52
2022-09-27T05:29:20.755Z,988.56
2022-09-27T05:30:20.739Z,988.48
2022-09-27T05:31:20.776Z,988.53
2022-09-27T05:32:20.693Z,988.62
2022-09-27T05:33:20.675Z,988.56
2022-09-27T05:34:20.653Z,988.57
2022-09-27T05:35:20.637Z,988.65
2022-09-27T05:36:20.617Z,988.62
2022-09-27T05:37:20.594Z,988.60
2022-09-27T05:38:20.572Z,988.65
2022-09-27T05:39:20.552Z,988.63
2022-09-27T05:40:37.048Z,988.62
2022-09-27T05:41:20.552Z,988.63
2022-09-27T05:42:20.489Z,988.67
2022-09-27T05:43:20.470Z,988.69
2022-09-27T05:44:20.477Z,988.65
2022-09-27T05:45:20.434Z,988.68
2022-09-27T05:46:20.480Z,988.71
2022-09-27T05:47:20.393Z,988.66
2022-09-27T05:48:20.373Z,988.69
2022-09-27T05:49:20.350Z,988.71
2022-09-27T05:50:20.331Z,988.72
2022-09-27T05:51:20.311Z,988.72
2022-09-27T05:52:21.517Z,988.78
2022-09-27T05:53:20.270Z,988.79
2022-09-27T05:54:20.250Z,988.74
2022-09-27T05:55:20.225Z,988.75
2022-09-27T05:56:20.211Z,988.73
2022-09-27T05:57:20.188Z,988.69
2022-09-27T05:58:20.164Z,988.74
2022-09-27T05:59:20.153Z,988.76
2022-09-27T06:00:20.147Z,988.75
2022-09-27T06:01:20.172Z,988.76
2022-09-27T06:02:20.122Z,988.73
2022-09-27T06:03:20.075Z,988.69
2022-09-27T06:04:20.045Z,988.75
2022-09-27T06:05:20.030Z,988.72
2022-09-27T06:06:20.010Z,988.77
2022-09-27T06:07:19.984Z,988.75
2022-09-27T06:08:19.966Z,988.74
2022-09-27T06:09:19.946Z,988.77
2022-09-27T06:10:19.926Z,988.74
2022-09-27T06:11:19.900Z,988.77
2022-09-27T06:12:19.883Z,988.77
2022-09-27T06:13:19.864Z,988.79
2022-09-27T06:14:19.933Z,988.76
2022-09-27T06:15:19.818Z,988.80
2022-09-27T06:16:19.869Z,988.78
2022-09-27T06:17:19.780Z,988.81
2022-09-27T06:18:19.764Z,988.81
2022-09-27T06:19:19.748Z,988.79
2022-09-27T06:20:19.721Z,988.82
2022-09-27T06:21:19.705Z,988.81
2022-09-27T06:22:19.680Z,988.80
2022-09-27T06:23:19.665Z,988.81
2022-09-27T06:24:19.638Z,988.84
2022-09-27T06:25:19.623Z,988.82
2022-09-27T06:26:19.604Z,988.82
2022-09-27T06:27:19.585Z,988.89
2022-09-27T06:28:19.562Z,988.92
2022-09-27T06:29:19.545Z,988.91
2022-09-27T06:30:20.463Z,988.91
2022-09-27T06:31:19.553Z,988.95
2022-09-27T06:32:19.499Z,988.95
2022-09-27T06:33:19.465Z,988.94
2022-09-27T06:34:19.448Z,988.99
2022-09-27T06:35:19.423Z,988.96
2022-09-27T06:36:19.411Z,988.96
2022-09-27T06:37:19.388Z,989.00
2022-09-27T06:38:19.363Z,988.97
2022-09-27T06:39:19.347Z,989.02
2022-09-27T06:40:19.362Z,989.03
2022-09-27T06:41:19.305Z,989.02
2022-09-27T06:42:19.285Z,989.02
2022-09-27T06:43:19.263Z,989.00
2022-09-27T06:44:19.247Z,989.05
2022-09-27T06:45:19.224Z,989.09
2022-09-27T06:46:19.238Z,989.10
2022-09-27T06:47:19.188Z,989.12
2022-09-27T06:48:19.188Z,989.15
2022-09-27T06:49:19.164Z,989.18
2022-09-27T06:50:19.127Z,989.26
2022-09-27T06:51:19.130Z,989.34
2022-09-27T06:52:19.090Z,989.26
2022-09-27T06:53:19.079Z,989.25
2022-09-27T06:54:19.048Z,989.27
2022-09-27T06:55:19.034Z,989.28
2022-09-27T06:56:19.013Z,989.28
2022-09-27T06:57:18.994Z,989.27
2022-09-27T06:58:18.981Z,989.29
2022-09-27T06:59:18.957Z,989.25
2022-09-27T07:00:18.934Z,989.34
2022-09-27T07:01:18.990Z,989.31
2022-09-27T07:02:19.001Z,989.34
2022-09-27T07:03:18.877Z,989.32
2022-09-27T07:04:18.876Z,989.33
2022-09-27T07:05:18.835Z,989.24
2022-09-27T07:06:18.817Z,989.34
2022-09-27T07:07:18.800Z,989.37
2022-09-27T07:08:18.778Z,989.41
2022-09-27T07:09:18.758Z,989.47
2022-09-27T07:10:18.748Z,989.44
2022-09-27T07:11:18.726Z,989.62
2022-09-27T07:12:18.701Z,989.53
2022-09-27T07:13:18.683Z,989.76
2022-09-27T07:14:18.666Z,989.55
2022-09-27T07:15:18.648Z,989.80
2022-09-27T07:16:18.683Z,989.90
2022-09-27T07:17:18.616Z,989.96
2022-09-27T07:18:18.602Z,989.98
2022-09-27T07:19:18.581Z,990.09
2022-09-27T07:20:18.713Z,990.18
2022-09-27T07:21:18.555Z,990.07
2022-09-27T07:22:18.542Z,989.72
2022-09-27T07:23:18.525Z,989.69
2022-09-27T07:24:18.516Z,989.72
2022-09-27T07:25:18.499Z,989.70
2022-09-27T07:26:18.489Z,989.70
2022-09-27T07:27:18.472Z,989.71
2022-09-27T07:28:21.857Z,989.67
2022-09-27T07:29:18.447Z,989.74
2022-09-27T07:30:18.428Z,989.74
2022-09-27T07:31:18.489Z,989.69
2022-09-27T07:32:18.398Z,989.69
2022-09-27T07:33:18.384Z,989.72
2022-09-27T07:34:18.366Z,989.70
2022-09-27T07:35:18.357Z,989.70
2022-09-27T07:36:18.362Z,989.67
2022-09-27T07:37:18.318Z,989.71
2022-09-27T07:38:18.302Z,989.86
2022-09-27T07:39:18.284Z,989.78
2022-09-27T07:40:18.314Z,989.80
2022-09-27T07:41:18.289Z,989.75
2022-09-27T07:42:18.238Z,989.72
2022-09-27T07:43:18.230Z,989.79
2022-09-27T07:44:18.210Z,989.83
2022-09-27T07:45:18.203Z,989.77
2022-09-27T07:46:18.221Z,989.81
2022-09-27T07:47:18.158Z,989.85
2022-09-27T07:48:18.143Z,989.80
2022-09-27T07:49:18.126Z,989.75
2022-09-27T07:50:18.110Z,989.84
2022-09-27T07:51:18.089Z,989.79
2022-09-27T07:52:18.097Z,989.84
2022-09-27T07:53:18.060Z,989.86
2022-09-27T07:54:18.044Z,990.41
2022-09-27T07:55:18.036Z,990.07
2022-09-27T07:56:18.006Z,990.66
2022-09-27T07:57:18.000Z,990.60
2022-09-27T07:58:17.978Z,990.70
2022-09-27T07:59:17.964Z,990.68
2022-09-27T08:00:17.951Z,990.37
2022-09-27T08:01:17.989Z,990.26
2022-09-27T08:02:17.995Z,990.20
2022-09-27T08:03:17.917Z,990.52
2022-09-27T08:04:17.903Z,990.25
2022-09-27T08:05:17.899Z,990.80
2022-09-27T08:06:17.881Z,990.84
2022-09-27T08:07:17.873Z,990.29
2022-09-27T08:08:17.896Z,990.19
2022-09-27T08:09:17.847Z,990.17
2022-09-27T08:10:17.834Z,990.93
2022-09-27T08:11:17.828Z,990.74
2022-09-27T08:12:17.812Z,991.01
2022-09-27T08:13:17.800Z,990.92
2022-09-27T08:14:17.788Z,991.01
2022-09-27T08:15:17.796Z,990.33
2022-09-27T08:16:17.805Z,990.69
2022-09-27T08:17:17.786Z,991.08
2022-09-27T08:18:17.760Z,990.99
2022-09-27T08:19:18.006Z,991.13
2022-09-27T08:20:17.734Z,990.57
2022-09-27T08:21:17.729Z,990.33
2022-09-27T08:22:17.716Z,990.41
2022-09-27T08:23:17.712Z,991.10
2022-09-27T08:24:17.727Z,991.11
2022-09-27T08:25:17.694Z,990.37
2022-09-27T08:26:17.683Z,991.13
2022-09-27T08:27:17.673Z,991.16
2022-09-27T08:28:17.670Z,991.24
2022-09-27T08:29:17.666Z,991.34
2022-09-27T08:30:17.653Z,990.51
2022-09-27T08:31:17.701Z,991.20
2022-09-27T08:32:22.811Z,991.00
2022-09-27T08:33:17.629Z,990.68
2022-09-27T08:34:17.808Z,990.43
2022-09-27T08:35:17.612Z,991.34
2022-09-27T08:36:17.600Z,991.32
2022-09-27T08:37:17.597Z,990.49
2022-09-27T08:38:17.588Z,990.56
2022-09-27T08:39:17.740Z,990.47
2022-09-27T08:40:17.728Z,990.51
2022-09-27T08:41:17.580Z,991.00
2022-09-27T08:42:17.556Z,990.45
2022-09-27T08:43:17.548Z,990.44
2022-09-27T08:44:17.718Z,990.53
2022-09-27T08:45:17.521Z,990.63
2022-09-27T08:46:17.512Z,990.46
2022-09-27T08:47:17.505Z,990.53
2022-09-27T08:48:17.488Z,990.39
2022-09-27T08:49:17.479Z,990.92
2022-09-27T08:50:17.466Z,990.88
2022-09-27T08:51:17.459Z,990.49
2022-09-27T08:52:17.459Z,990.42
2022-09-27T08:53:17.438Z,990.93
2022-09-27T08:54:17.581Z,990.41
2022-09-27T08:55:17.413Z,990.44
2022-09-27T08:56:17.429Z,990.53
2022-09-27T08:57:17.386Z,990.40
2022-09-27T08:58:17.396Z,990.47
2022-09-27T08:59:17.364Z,990.42
2022-09-27T09:00:17.352Z,990.42
2022-09-27T09:01:17.429Z,990.37
2022-09-27T09:02:17.339Z,991.28
2022-09-27T09:03:17.311Z,990.94
2022-09-27T09:04:17.406Z,990.54
2022-09-27T09:05:17.286Z,990.40
2022-09-27T09:06:17.270Z,990.48
2022-09-27T09:07:17.257Z,990.45
2022-09-27T09:08:17.241Z,990.41
2022-09-27T09:09:17.231Z,990.43
2022-09-27T09:10:17.216Z,990.46
2022-09-27T09:11:17.204Z,990.47
2022-09-27T09:12:17.208Z,990.47
2022-09-27T09:13:17.178Z,990.42
2022-09-27T09:14:17.493Z,990.52
2022-09-27T09:15:17.143Z,990.53
2022-09-27T09:16:17.211Z,990.43
2022-09-27T09:17:17.115Z,990.43
2022-09-27T09:18:17.097Z,990.38
2022-09-27T09:19:17.080Z,990.42
2022-09-27T09:20:17.614Z,990.45
2022-09-27T09:21:17.052Z,990.43
2022-09-27T09:22:17.032Z,990.43
2022-09-27T09:23:17.014Z,990.39
2022-09-27T09:24:17.127Z,990.43
2022-09-27T09:25:16.987Z,990.47
2022-09-27T09:26:16.966Z,990.45
2022-09-27T09:27:16.954Z,990.44
2022-09-27T09:28:16.986Z,990.64
2022-09-27T09:29:16.925Z,990.52
2022-09-27T09:30:16.906Z,991.03
2022-09-27T09:31:16.931Z,990.58
2022-09-27T09:32:16.871Z,990.98
2022-09-27T09:33:16.872Z,990.56
2022-09-27T09:34:17.028Z,990.83
2022-09-27T09:35:16.856Z,990.65
2022-09-27T09:36:16.812Z,990.59
2022-09-27T09:37:16.792Z,990.61
2022-09-27T09:38:16.777Z,990.66
2022-09-27T09:39:16.762Z,990.59
2022-09-27T09:40:16.804Z,990.69
2022-09-27T09:41:16.730Z,990.50
2022-09-27T09:42:16.714Z,990.54
2022-09-27T09:43:16.709Z,990.50
2022-09-27T09:44:16.966Z,990.50
2022-09-27T09:45:16.677Z,990.49
2022-09-27T09:46:16.661Z,990.59
2022-09-27T09:47:16.648Z,990.52
2022-09-27T09:48:16.629Z,990.61
2022-09-27T09:49:16.619Z,990.65
2022-09-27T09:50:16.613Z,990.67
2022-09-27T09:51:16.591Z,990.65
2022-09-27T09:52:16.577Z,990.59
2022-09-27T09:53:16.564Z,990.49
2022-09-27T09:54:16.750Z,990.44
2022-09-27T09:55:16.539Z,990.39
2022-09-27T09:56:16.520Z,990.42
2022-09-27T09:57:16.504Z,990.35
2022-09-27T09:58:19.743Z,990.38
2022-09-27T09:59:16.477Z,990.37
2022-09-27T10:00:16.491Z,990.39
2022-09-27T10:01:16.501Z,990.42
2022-09-27T10:02:16.477Z,990.38
2022-09-27T10:03:16.419Z,990.48
2022-09-27T10:04:16.498Z,990.52
2022-09-27T10:05:16.390Z,990.47
2022-09-27T10:06:16.375Z,990.50
2022-09-27T10:07:16.355Z,990.44
2022-09-27T10:08:16.343Z,990.52
2022-09-27T10:09:16.334Z,990.46
2022-09-27T10:10:16.311Z,990.42
2022-09-27T10:11:16.301Z,990.38
2022-09-27T10:12:16.286Z,990.39
2022-09-27T10:13:16.270Z,990.41
2022-09-27T10:14:16.370Z,990.34
2022-09-27T10:15:16.245Z,990.36
2022-09-27T10:16:16.249Z,990.27
2022-09-27T10:17:16.204Z,990.33
2022-09-27T10:18:16.193Z,990.32
2022-09-27T10:19:16.174Z,990.24
2022-09-27T10:20:16.158Z,990.27
2022-09-27T10:21:16.141Z,990.40
2022-09-27T10:22:16.125Z,990.35
2022-09-27T10:23:16.110Z,990.42
2022-09-27T10:24:18.495Z,990.33
2022-09-27T10:25:16.075Z,990.48
2022-09-27T10:26:16.062Z,990.43
2022-09-27T10:27:16.056Z,990.49
2022-09-27T10:28:16.032Z,990.44
2022-09-27T10:29:16.019Z,990.31
2022-09-27T10:30:16.004Z,990.33
2022-09-27T10:31:16.050Z,990.24
2022-09-27T10:32:15.992Z,990.45
2022-09-27T10:33:15.961Z,990.36
2022-09-27T10:34:15.996Z,990.33
2022-09-27T10:35:19.129Z,990.24
2022-09-27T10:36:15.915Z,990.22
2022-09-27T10:37:15.907Z,990.20
2022-09-27T10:38:15.882Z,990.21
2022-09-27T10:39:15.873Z,990.25
2022-09-27T10:40:15.871Z,990.20
2022-09-27T10:41:15.837Z,990.15
2022-09-27T10:42:15.822Z,990.19
2022-09-27T10:43:15.808Z,990.27
2022-09-27T10:44:16.008Z,990.23
2022-09-27T10:45:15.774Z,990.21
2022-09-27T10:46:15.764Z,990.17
2022-09-27T10:47:15.743Z,990.23
2022-09-27T10:48:15.750Z,990.21
2022-09-27T10:49:15.716Z,990.27
2022-09-27T10:50:38.945Z,990.42
2022-09-27T10:51:15.680Z,990.28
2022-09-27T10:52:15.660Z,990.33
2022-09-27T10:53:15.642Z,990.38
2022-09-27T10:54:15.703Z,990.40
2022-09-27T10:55:15.616Z,990.40
2022-09-27T10:56:15.597Z,990.34
2022-09-27T10:57:15.581Z,990.41
2022-09-27T10:58:15.558Z,990.26
2022-09-27T10:59:15.546Z,990.27
2022-09-27T11:00:15.534Z,990.27
2022-09-27T11:01:15.555Z,990.23
2022-09-27T11:02:15.498Z,990.23
2022-09-27T11:03:15.485Z,990.16
2022-09-27T11:04:15.872Z,990.24
2022-09-27T11:05:15.984Z,990.45
2022-09-27T11:06:15.435Z,990.33
2022-09-27T11:07:15.416Z,990.32
2022-09-27T11:08:15.399Z,990.30
2022-09-27T11:09:15.386Z,990.22
2022-09-27T11:10:15.368Z,990.20
2022-09-27T11:11:15.361Z,990.22
2022-09-27T11:12:15.337Z,990.19
2022-09-27T11:13:15.326Z,990.18
2022-09-27T11:14:15.433Z,990.21
2022-09-27T11:15:15.293Z,990.17
2022-09-27T11:16:15.391Z,990.12
2022-09-27T11:17:15.256Z,990.16
2022-09-27T11:18:15.246Z,990.13
2022-09-27T11:19:15.777Z,990.11
2022-09-27T11:20:15.228Z,990.11
2022-09-27T11:21:15.193Z,990.13
2022-09-27T11:22:15.176Z,990.18
2022-09-27T11:23:15.155Z,990.18
2022-09-27T11:24:15.238Z,990.19
2022-09-27T11:25:15.124Z,990.25
2022-09-27T11:26:15.102Z,990.22
2022-09-27T11:27:15.089Z,990.21
2022-09-27T11:28:15.070Z,990.20
2022-09-27T11:29:15.054Z,990.29
2022-09-27T11:30:15.039Z,990.20
2022-09-27T11:31:19.408Z,990.22
2022-09-27T11:32:14.997Z,990.19
2022-09-27T11:33:14.986Z,990.23
2022-09-27T11:34:14.978Z,990.18
2022-09-27T11:35:14.951Z,990.22
2022-09-27T11:36:14.956Z,990.26
2022-09-27T11:37:14.915Z,990.29
2022-09-27T11:38:29.605Z,990.26
2022-09-27T11:39:15.085Z,990.33
2022-09-27T11:40:14.928Z,990.35
2022-09-27T11:41:14.849Z,990.31
2022-09-27T11:42:14.834Z,990.40
2022-09-27T11:43:14.825Z,990.44
2022-09-27T11:44:14.800Z,990.36
2022-09-27T11:46:19.319Z,990.33
2022-09-27T11:47:14.915Z,990.30
2022-09-27T11:48:14.725Z,990.28
2022-09-27T11:49:14.738Z,990.27
2022-09-27T11:50:14.694Z,990.30
2022-09-27T11:51:14.672Z,990.27
2022-09-27T11:52:14.683Z,990.21
2022-09-27T11:53:14.643Z,990.23
2022-09-27T11:54:14.714Z,990.21
2022-09-27T11:55:14.607Z,990.18
2022-09-27T11:56:14.593Z,990.24
2022-09-27T11:57:14.577Z,990.21
2022-09-27T11:58:14.555Z,990.17
2022-09-27T11:59:14.643Z,990.22
2022-09-27T12:00:14.527Z,990.32
2022-09-27T12:01:14.514Z,990.14
2022-09-27T12:02:14.661Z,990.17
2022-09-27T12:03:14.476Z,990.10
2022-09-27T12:04:14.462Z,990.11
2022-09-27T12:05:14.456Z,990.11
2022-09-27T12:06:14.424Z,990.17
2022-09-27T12:07:14.408Z,990.13
2022-09-27T12:08:14.410Z,990.10
2022-09-27T12:09:14.488Z,990.10
2022-09-27T12:10:14.359Z,990.07
2022-09-27T12:11:14.341Z,990.09
2022-09-27T12:12:14.329Z,990.14
2022-09-27T12:13:14.312Z,990.11
2022-09-27T12:14:14.292Z,990.10
2022-09-27T12:15:14.285Z,990.05
2022-09-27T12:16:14.295Z,990.08
2022-09-27T12:17:14.251Z,990.11
2022-09-27T12:18:14.228Z,990.04
2022-09-27T12:19:14.210Z,990.12
2022-09-27T12:20:14.191Z,990.16
2022-09-27T12:21:14.181Z,990.09
2022-09-27T12:22:14.166Z,990.12
2022-09-27T12:23:14.148Z,990.11
2022-09-27T12:24:14.194Z,990.17
2022-09-27T12:25:18.272Z,990.10
2022-09-27T12:26:14.094Z,990.09
2022-09-27T12:27:14.086Z,990.11
2022-09-27T12:28:14.062Z,990.04
2022-09-27T12:29:14.246Z,990.01